sensor_id;sensor_type;location;lat;lon;timestamp;pressure;altitude;pressure_sealevel;temperature;humidity
49461;BME280;35355;49.198;-0.368;2023-03-04T00:00:33;102241.81;;;5.96;69.60
49461;BME280;35355;49.198;-0.368;2023-03-04T00:02:58;102246.78;;;5.92;69.36
49461;BME280;35355;49.198;-0.368;2023-03-04T00:05:23;102246.31;;;5.89;69.64
49461;BME280;35355;49.198;-0.368;2023-03-04T00:07:49;102236.94;;;5.85;69.51
49461;BME280;35355;49.198;-0.368;2023-03-04T00:10:14;102246.06;;;5.84;69.13
49461;BME280;35355;49.198;-0.368;2023-03-04T00:12:40;102247.09;;;5.83;69.49
49461;BME280;35355;49.198;-0.368;2023-03-04T00:15:05;102244.78;;;5.79;69.20
49461;BME280;35355;49.198;-0.368;2023-03-04T00:17:31;102245.41;;;5.82;69.69
49461;BME280;35355;49.198;-0.368;2023-03-04T00:19:57;102226.69;;;5.65;68.58
49461;BME280;35355;49.198;-0.368;2023-03-04T00:22:22;102247.50;;;5.79;69.50
49461;BME280;35355;49.198;-0.368;2023-03-04T00:24:48;102258.53;;;5.78;68.52
49461;BME280;35355;49.198;-0.368;2023-03-04T00:27:13;102252.28;;;5.77;68.51
49461;BME280;35355;49.198;-0.368;2023-03-04T00:29:38;102258.53;;;5.78;68.72
49461;BME280;35355;49.198;-0.368;2023-03-04T00:32:04;102252.28;;;5.77;68.89
49461;BME280;35355;49.198;-0.368;2023-03-04T00:34:29;102248.91;;;5.75;68.53
49461;BME280;35355;49.198;-0.368;2023-03-04T00:36:55;102263.50;;;5.74;68.21
49461;BME280;35355;49.198;-0.368;2023-03-04T00:39:26;102250.31;;;5.71;68.39
49461;BME280;35355;49.198;-0.368;2023-03-04T00:41:52;102260.50;;;5.69;68.85
49461;BME280;35355;49.198;-0.368;2023-03-04T00:44:17;102250.69;;;5.68;68.58
49461;BME280;35355;49.198;-0.368;2023-03-04T00:46:43;102249.63;;;5.62;67.95
49461;BME280;35355;49.198;-0.368;2023-03-04T00:49:08;102252.97;;;5.65;67.66
49461;BME280;35355;49.198;-0.368;2023-03-04T00:51:33;102252.13;;;5.64;68.44
49461;BME280;35355;49.198;-0.368;2023-03-04T00:53:59;102253.78;;;5.65;67.93
49461;BME280;35355;49.198;-0.368;2023-03-04T00:56:24;102247.94;;;5.61;68.09
49461;BME280;35355;49.198;-0.368;2023-03-04T00:58:49;102253.97;;;5.63;67.97
49461;BME280;35355;49.198;-0.368;2023-03-04T01:01:15;102217.91;;;5.41;67.88
49461;BME280;35355;49.198;-0.368;2023-03-04T01:03:40;102252.53;;;5.61;68.09
49461;BME280;35355;49.198;-0.368;2023-03-04T01:06:06;102251.22;;;5.57;67.90
49461;BME280;35355;49.198;-0.368;2023-03-04T01:08:32;102262.88;;;5.57;67.69
49461;BME280;35355;49.198;-0.368;2023-03-04T01:10:57;102262.06;;;5.57;68.19
49461;BME280;35355;49.198;-0.368;2023-03-04T01:13:23;102254.94;;;5.56;67.87
49461;BME280;35355;49.198;-0.368;2023-03-04T01:15:48;102254.94;;;5.56;68.04
49461;BME280;35355;49.198;-0.368;2023-03-04T01:18:13;102264.09;;;5.55;67.87
49461;BME280;35355;49.198;-0.368;2023-03-04T01:20:39;102255.34;;;5.53;67.88
49461;BME280;35355;49.198;-0.368;2023-03-04T01:23:04;102260.09;;;5.51;67.91
49461;BME280;35355;49.198;-0.368;2023-03-04T01:25:29;102257.41;;;5.51;67.78
49461;BME280;35355;49.198;-0.368;2023-03-04T01:27:55;102249.28;;;5.51;67.30
49461;BME280;35355;49.198;-0.368;2023-03-04T01:30:20;102244.41;;;5.46;67.63
49461;BME280;35355;49.198;-0.368;2023-03-04T01:32:46;102247.78;;;5.48;67.80
49461;BME280;35355;49.198;-0.368;2023-03-04T01:35:11;102251.31;;;5.49;68.05
49461;BME280;35355;49.198;-0.368;2023-03-04T01:37:36;102243.19;;;5.49;67.56
49461;BME280;35355;49.198;-0.368;2023-03-04T01:40:02;102243.19;;;5.49;67.09
49461;BME280;35355;49.198;-0.368;2023-03-04T01:42:31;102246.91;;;5.48;67.71
49461;BME280;35355;49.198;-0.368;2023-03-04T01:44:58;102243.19;;;5.49;67.09
49461;BME280;35355;49.198;-0.368;2023-03-04T01:47:27;102235.25;;;5.47;67.12
49461;BME280;35355;49.198;-0.368;2023-03-04T01:49:55;102234.25;;;5.48;67.84
49461;BME280;35355;49.198;-0.368;2023-03-04T01:52:21;102213.06;;;5.37;67.75
49461;BME280;35355;49.198;-0.368;2023-03-04T01:54:47;102234.69;;;5.52;67.06
49461;BME280;35355;49.198;-0.368;2023-03-04T01:57:18;102234.69;;;5.52;67.41
49461;BME280;35355;49.198;-0.368;2023-03-04T01:59:45;102230.94;;;5.53;67.45
49461;BME280;35355;49.198;-0.368;2023-03-04T02:02:11;102222.19;;;5.51;66.79
49461;BME280;35355;49.198;-0.368;2023-03-04T02:04:38;102223.47;;;5.55;66.70
49461;BME280;35355;49.198;-0.368;2023-03-04T02:07:05;102223.28;;;5.56;66.92
49461;BME280;35355;49.198;-0.368;2023-03-04T02:09:32;102225.78;;;5.58;67.25
49461;BME280;35355;49.198;-0.368;2023-03-04T02:11:58;102216.84;;;5.57;66.64
49461;BME280;35355;49.198;-0.368;2023-03-04T02:14:24;102216.19;;;5.55;67.42
49461;BME280;35355;49.198;-0.368;2023-03-04T02:16:50;102211.16;;;5.52;66.86
49461;BME280;35355;49.198;-0.368;2023-03-04T02:21:51;102214.69;;;5.53;66.45
49461;BME280;35355;49.198;-0.368;2023-03-04T02:26:48;102202.31;;;5.43;67.02
49461;BME280;35355;49.198;-0.368;2023-03-04T02:29:15;102210.88;;;5.47;66.89
49461;BME280;35355;49.198;-0.368;2023-03-04T02:31:43;102207.94;;;5.42;66.67
49461;BME280;35355;49.198;-0.368;2023-03-04T02:34:21;102209.78;;;5.41;66.76
49461;BME280;35355;49.198;-0.368;2023-03-04T02:36:49;102213.16;;;5.43;66.91
49461;BME280;35355;49.198;-0.368;2023-03-04T02:41:44;102201.47;;;5.43;66.87
49461;BME280;35355;49.198;-0.368;2023-03-04T02:46:49;102202.13;;;5.45;66.29
49461;BME280;35355;49.198;-0.368;2023-03-04T02:49:15;102203.78;;;5.46;66.63
49461;BME280;35355;49.198;-0.368;2023-03-04T02:51:41;102203.97;;;5.44;66.66
49461;BME280;35355;49.198;-0.368;2023-03-04T02:54:17;102196.03;;;5.43;66.66
49461;BME280;35355;49.198;-0.368;2023-03-04T02:56:45;102200.25;;;5.45;65.80
49461;BME280;35355;49.198;-0.368;2023-03-04T02:59:11;102206.69;;;5.44;66.22
49461;BME280;35355;49.198;-0.368;2023-03-04T03:01:37;102194.00;;;5.45;66.91
49461;BME280;35355;49.198;-0.368;2023-03-04T03:04:02;102190.44;;;5.44;66.48
49461;BME280;35355;49.198;-0.368;2023-03-04T03:06:27;102183.38;;;5.43;66.64
49461;BME280;35355;49.198;-0.368;2023-03-04T03:08:53;102191.50;;;5.43;66.61
49461;BME280;35355;49.198;-0.368;2023-03-04T03:11:18;102189.41;;;5.45;66.44
49461;BME280;35355;49.198;-0.368;2023-03-04T03:13:43;102192.94;;;5.46;66.52
49461;BME280;35355;49.198;-0.368;2023-03-04T03:16:09;102191.75;;;5.49;66.33
49461;BME280;35355;49.198;-0.368;2023-03-04T03:18:34;102200.53;;;5.51;67.04
49461;BME280;35355;49.198;-0.368;2023-03-04T03:20:59;102201.34;;;5.51;65.93
49461;BME280;35355;49.198;-0.368;2023-03-04T03:23:25;102201.16;;;5.53;66.36
49461;BME280;35355;49.198;-0.368;2023-03-04T03:25:50;102203.22;;;5.51;65.95
49461;BME280;35355;49.198;-0.368;2023-03-04T03:28:15;102207.78;;;5.50;65.88
49461;BME280;35355;49.198;-0.368;2023-03-04T03:30:41;102191.75;;;5.49;66.49
49461;BME280;35355;49.198;-0.368;2023-03-04T03:33:06;102202.00;;;5.53;66.99
49461;BME280;35355;49.198;-0.368;2023-03-04T03:35:31;102197.63;;;5.52;66.24
49461;BME280;35355;49.198;-0.368;2023-03-04T03:37:57;102194.53;;;5.55;66.52
49461;BME280;35355;49.198;-0.368;2023-03-04T03:40:22;102204.88;;;5.52;66.34
49461;BME280;35355;49.198;-0.368;2023-03-04T03:42:48;102194.06;;;5.52;65.85
49461;BME280;35355;49.198;-0.368;2023-03-04T03:45:13;102197.16;;;5.49;66.17
49461;BME280;35355;49.198;-0.368;2023-03-04T03:47:39;102198.66;;;5.51;66.08
49461;BME280;35355;49.198;-0.368;2023-03-04T03:50:05;102202.19;;;5.52;66.36
49461;BME280;35355;49.198;-0.368;2023-03-04T03:52:30;102208.81;;;5.49;66.32
49461;BME280;35355;49.198;-0.368;2023-03-04T03:54:55;102203.34;;;5.42;66.10
49461;BME280;35355;49.198;-0.368;2023-03-04T03:57:21;102213.34;;;5.42;65.86
49461;BME280;35355;49.198;-0.368;2023-03-04T03:59:46;102212.03;;;5.38;66.22
49461;BME280;35355;49.198;-0.368;2023-03-04T04:02:11;102208.84;;;5.34;66.47
49461;BME280;35355;49.198;-0.368;2023-03-04T04:04:37;102209.06;;;5.33;66.33
49461;BME280;35355;49.198;-0.368;2023-03-04T04:07:02;102212.13;;;5.30;66.32
49461;BME280;35355;49.198;-0.368;2023-03-04T04:09:28;102209.63;;;5.28;66.58
49461;BME280;35355;49.198;-0.368;2023-03-04T04:11:53;102205.91;;;5.29;66.90
49461;BME280;35355;49.198;-0.368;2023-03-04T04:14:18;102206.53;;;5.31;66.23
49461;BME280;35355;49.198;-0.368;2023-03-04T04:16:44;102208.84;;;5.34;66.89
49461;BME280;35355;49.198;-0.368;2023-03-04T04:19:16;102200.94;;;5.33;66.52
49461;BME280;35355;49.198;-0.368;2023-03-04T04:21:42;102207.19;;;5.33;66.27
49461;BME280;35355;49.198;-0.368;2023-03-04T04:24:07;102210.09;;;5.32;66.45
49461;BME280;35355;49.198;-0.368;2023-03-04T04:26:32;102210.94;;;5.32;66.22
49461;BME280;35355;49.198;-0.368;2023-03-04T04:28:58;102210.53;;;5.35;65.95
49461;BME280;35355;49.198;-0.368;2023-03-04T04:31:23;102212.03;;;5.38;66.63
49461;BME280;35355;49.198;-0.368;2023-03-04T04:33:48;102210.34;;;5.37;66.07
49461;BME280;35355;49.198;-0.368;2023-03-04T04:36:14;102211.84;;;5.39;66.06
49461;BME280;35355;49.198;-0.368;2023-03-04T04:38:40;102216.69;;;5.44;66.63
49461;BME280;35355;49.198;-0.368;2023-03-04T04:41:16;102219.84;;;5.48;66.58
49461;BME280;35355;49.198;-0.368;2023-03-04T04:43:42;102206.44;;;5.39;65.70
49461;BME280;35355;49.198;-0.368;2023-03-04T04:46:08;102224.50;;;5.54;65.33
49461;BME280;35355;49.198;-0.368;2023-03-04T04:48:33;102220.56;;;5.56;65.75
49461;BME280;35355;49.198;-0.368;2023-03-04T04:50:58;102219.53;;;5.57;65.78
49461;BME280;35355;49.198;-0.368;2023-03-04T04:53:24;102214.50;;;5.54;65.50
49461;BME280;35355;49.198;-0.368;2023-03-04T04:55:49;102222.88;;;5.59;65.50
49461;BME280;35355;49.198;-0.368;2023-03-04T04:58:14;102211.03;;;5.60;65.15
49461;BME280;35355;49.198;-0.368;2023-03-04T05:00:40;102217.94;;;5.63;66.27
49461;BME280;35355;49.198;-0.368;2023-03-04T05:03:05;102219.44;;;5.66;65.00
49461;BME280;35355;49.198;-0.368;2023-03-04T05:05:30;102221.75;;;5.69;66.08
49461;BME280;35355;49.198;-0.368;2023-03-04T05:07:56;102217.16;;;5.69;65.66
49461;BME280;35355;49.198;-0.368;2023-03-04T05:10:21;102187.16;;;5.49;65.18
49461;BME280;35355;49.198;-0.368;2023-03-04T05:12:46;102218.66;;;5.72;65.38
49461;BME280;35355;49.198;-0.368;2023-03-04T05:15:12;102210.34;;;5.73;65.02
49461;BME280;35355;49.198;-0.368;2023-03-04T05:17:37;102213.69;;;5.75;65.46
49461;BME280;35355;49.198;-0.368;2023-03-04T05:20:03;102218.91;;;5.77;64.90
49461;BME280;35355;49.198;-0.368;2023-03-04T05:22:28;102215.56;;;5.75;64.45
49461;BME280;35355;49.198;-0.368;2023-03-04T05:24:53;102214.72;;;5.74;64.90
49461;BME280;35355;49.198;-0.368;2023-03-04T05:27:19;102216.38;;;5.75;64.27
49461;BME280;35355;49.198;-0.368;2023-03-04T05:29:44;102214.72;;;5.74;64.65
49461;BME280;35355;49.198;-0.368;2023-03-04T05:32:11;102213.88;;;5.74;64.83
49461;BME280;35355;49.198;-0.368;2023-03-04T05:34:36;102214.06;;;5.72;64.66
49461;BME280;35355;49.198;-0.368;2023-03-04T05:37:01;102218.91;;;5.77;63.86
49461;BME280;35355;49.198;-0.368;2023-03-04T05:39:27;102217.06;;;5.77;64.85
49461;BME280;35355;49.198;-0.368;2023-03-04T05:41:52;102213.28;;;5.78;64.02
49461;BME280;35355;49.198;-0.368;2023-03-04T05:44:18;102208.53;;;5.80;64.59
49461;BME280;35355;49.198;-0.368;2023-03-04T05:46:43;102215.59;;;5.82;64.19
49461;BME280;35355;49.198;-0.368;2023-03-04T05:49:08;102210.56;;;5.78;63.80
49461;BME280;35355;49.198;-0.368;2023-03-04T05:51:34;102207.47;;;5.82;64.19
49461;BME280;35355;49.198;-0.368;2023-03-04T05:53:59;102208.53;;;5.80;64.52
49461;BME280;35355;49.198;-0.368;2023-03-04T05:56:24;102205.63;;;5.82;64.14
49461;BME280;35355;49.198;-0.368;2023-03-04T05:58:50;102213.94;;;5.80;63.75
49461;BME280;35355;49.198;-0.368;2023-03-04T06:01:16;102217.69;;;5.79;64.13
49461;BME280;35355;49.198;-0.368;2023-03-04T06:03:41;102217.06;;;5.77;63.39
49461;BME280;35355;49.198;-0.368;2023-03-04T06:06:12;102216.00;;;5.78;63.70
49461;BME280;35355;49.198;-0.368;2023-03-04T06:08:37;102218.72;;;5.78;63.51
49461;BME280;35355;49.198;-0.368;2023-03-04T06:11:03;102223.09;;;5.79;63.66
49461;BME280;35355;49.198;-0.368;2023-03-04T06:13:29;102235.63;;;5.80;63.34
49461;BME280;35355;49.198;-0.368;2023-03-04T06:15:56;102232.91;;;5.80;63.37
49461;BME280;35355;49.198;-0.368;2023-03-04T06:18:23;102233.13;;;5.79;63.46
49461;BME280;35355;49.198;-0.368;2023-03-04T06:20:49;102239.84;;;5.83;63.36
49461;BME280;35355;49.198;-0.368;2023-03-04T06:23:15;102230.66;;;5.84;64.08
49461;BME280;35355;49.198;-0.368;2023-03-04T06:25:40;102234.03;;;5.86;63.42
49461;BME280;35355;49.198;-0.368;2023-03-04T06:28:05;102235.69;;;5.87;63.69
49461;BME280;35355;49.198;-0.368;2023-03-04T06:30:31;102236.53;;;5.88;63.71
49461;BME280;35355;49.198;-0.368;2023-03-04T06:32:56;102239.44;;;5.86;63.71
49461;BME280;35355;49.198;-0.368;2023-03-04T06:35:21;102239.44;;;5.86;64.17
49461;BME280;35355;49.198;-0.368;2023-03-04T06:37:47;102236.94;;;5.85;63.89
49461;BME280;35355;49.198;-0.368;2023-03-04T06:40:13;102241.50;;;5.84;63.86
49461;BME280;35355;49.198;-0.368;2023-03-04T06:42:39;102241.03;;;5.80;63.99
49461;BME280;35355;49.198;-0.368;2023-03-04T06:45:06;102256.91;;;5.84;63.66
49461;BME280;35355;49.198;-0.368;2023-03-04T06:47:31;102256.91;;;5.84;64.02
49461;BME280;35355;49.198;-0.368;2023-03-04T06:49:57;102253.19;;;5.85;64.19
49461;BME280;35355;49.198;-0.368;2023-03-04T06:52:22;102255.91;;;5.85;64.14
49461;BME280;35355;49.198;-0.368;2023-03-04T06:54:48;102259.44;;;5.85;64.27
49461;BME280;35355;49.198;-0.368;2023-03-04T06:57:13;102258.59;;;5.85;64.12
49461;BME280;35355;49.198;-0.368;2023-03-04T06:59:39;102261.94;;;5.87;64.10
49461;BME280;35355;49.198;-0.368;2023-03-04T07:02:05;102266.34;;;5.88;63.99
49461;BME280;35355;49.198;-0.368;2023-03-04T07:04:31;102265.47;;;5.87;64.48
49461;BME280;35355;49.198;-0.368;2023-03-04T07:06:56;102269.88;;;5.88;64.78
49461;BME280;35355;49.198;-0.368;2023-03-04T07:09:22;102274.47;;;5.88;64.41
49461;BME280;35355;49.198;-0.368;2023-03-04T07:11:47;102284.47;;;5.87;64.71
49461;BME280;35355;49.198;-0.368;2023-03-04T07:14:13;102276.31;;;5.87;64.75
49461;BME280;35355;49.198;-0.368;2023-03-04T07:16:38;102277.19;;;5.88;65.09
49461;BME280;35355;49.198;-0.368;2023-03-04T07:19:04;102275.09;;;5.90;65.23
49461;BME280;35355;49.198;-0.368;2023-03-04T07:21:29;102279.50;;;5.91;64.86
49461;BME280;35355;49.198;-0.368;2023-03-04T07:23:55;102281.16;;;5.92;64.80
49461;BME280;35355;49.198;-0.368;2023-03-04T07:26:20;102284.94;;;5.91;65.10
49461;BME280;35355;49.198;-0.368;2023-03-04T07:28:46;102289.09;;;5.93;64.94
49461;BME280;35355;49.198;-0.368;2023-03-04T07:31:24;102288.94;;;5.95;65.26
49461;BME280;35355;49.198;-0.368;2023-03-04T07:33:51;102291.66;;;5.95;65.21
49461;BME280;35355;49.198;-0.368;2023-03-04T07:36:18;102289.59;;;5.97;64.76
49461;BME280;35355;49.198;-0.368;2023-03-04T07:38:45;102299.22;;;6.00;65.05
49461;BME280;35355;49.198;-0.368;2023-03-04T07:41:11;102291.28;;;5.98;65.06
49461;BME280;35355;49.198;-0.368;2023-03-04T07:43:36;102289.22;;;6.00;65.47
49461;BME280;35355;49.198;-0.368;2023-03-04T07:46:02;102308.00;;;6.02;64.63
49461;BME280;35355;49.198;-0.368;2023-03-04T07:48:27;102303.41;;;6.02;65.18
49461;BME280;35355;49.198;-0.368;2023-03-04T07:51:14;102308.81;;;6.02;65.41
49461;BME280;35355;49.198;-0.368;2023-03-04T07:53:42;102310.50;;;6.03;64.87
49461;BME280;35355;49.198;-0.368;2023-03-04T07:56:12;102303.41;;;6.02;65.48
49461;BME280;35355;49.198;-0.368;2023-03-04T07:58:38;102301.75;;;6.01;65.11
49461;BME280;35355;49.198;-0.368;2023-03-04T08:01:15;102307.41;;;6.06;65.86
49461;BME280;35355;49.198;-0.368;2023-03-04T08:03:40;102308.72;;;6.10;64.69
49461;BME280;35355;49.198;-0.368;2023-03-04T08:06:10;102310.59;;;6.10;65.67
49461;BME280;35355;49.198;-0.368;2023-03-04T08:08:35;102306.00;;;6.10;65.72
49461;BME280;35355;49.198;-0.368;2023-03-04T08:11:06;102310.41;;;6.11;65.39
49461;BME280;35355;49.198;-0.368;2023-03-04T08:13:32;102310.22;;;6.13;65.59
49461;BME280;35355;49.198;-0.368;2023-03-04T08:15:58;102311.03;;;6.13;65.83
49461;BME280;35355;49.198;-0.368;2023-03-04T08:18:23;102317.09;;;6.15;66.21
49461;BME280;35355;49.198;-0.368;2023-03-04T08:20:49;102316.06;;;6.17;65.92
49461;BME280;35355;49.198;-0.368;2023-03-04T08:23:14;102314.03;;;6.19;66.21
49461;BME280;35355;49.198;-0.368;2023-03-04T08:25:40;102318.19;;;6.21;65.98
49461;BME280;35355;49.198;-0.368;2023-03-04T08:28:07;102306.13;;;6.24;66.11
49461;BME280;35355;49.198;-0.368;2023-03-04T08:30:32;102311.16;;;6.27;66.01
49461;BME280;35355;49.198;-0.368;2023-03-04T08:32:58;102299.91;;;6.30;66.36
49461;BME280;35355;49.198;-0.368;2023-03-04T08:35:23;102310.56;;;6.31;66.09
49461;BME280;35355;49.198;-0.368;2023-03-04T08:37:49;102310.38;;;6.33;65.66
49461;BME280;35355;49.198;-0.368;2023-03-04T08:40:14;102311.25;;;6.34;65.75
49461;BME280;35355;49.198;-0.368;2023-03-04T08:42:40;102309.34;;;6.34;65.71
49461;BME280;35355;49.198;-0.368;2023-03-04T08:45:07;102304.56;;;6.36;66.26
49461;BME280;35355;49.198;-0.368;2023-03-04T08:47:33;102309.63;;;6.39;65.62
49461;BME280;35355;49.198;-0.368;2023-03-04T08:49:58;102303.16;;;6.40;65.80
49461;BME280;35355;49.198;-0.368;2023-03-04T08:52:24;102308.75;;;6.39;65.71
49461;BME280;35355;49.198;-0.368;2023-03-04T08:54:49;102312.97;;;6.41;65.59
49461;BME280;35355;49.198;-0.368;2023-03-04T08:57:15;102309.22;;;6.42;65.23
49461;BME280;35355;49.198;-0.368;2023-03-04T08:59:40;102312.56;;;6.44;65.70
49461;BME280;35355;49.198;-0.368;2023-03-04T09:02:06;102321.34;;;6.46;65.82
49461;BME280;35355;49.198;-0.368;2023-03-04T09:04:31;102317.59;;;6.47;65.64
49461;BME280;35355;49.198;-0.368;2023-03-04T09:06:56;102316.78;;;6.47;65.68
49461;BME280;35355;49.198;-0.368;2023-03-04T09:09:22;102326.38;;;6.49;66.42
49461;BME280;35355;49.198;-0.368;2023-03-04T09:11:47;102327.03;;;6.52;65.79
49461;BME280;35355;49.198;-0.368;2023-03-04T09:14:12;102322.91;;;6.56;66.31
49461;BME280;35355;49.198;-0.368;2023-03-04T09:16:38;102321.84;;;6.57;66.33
49461;BME280;35355;49.198;-0.368;2023-03-04T09:19:03;102323.53;;;6.58;66.19
49461;BME280;35355;49.198;-0.368;2023-03-04T09:21:28;102316.03;;;6.60;66.77
49461;BME280;35355;49.198;-0.368;2023-03-04T09:23:54;102318.75;;;6.60;66.24
49461;BME280;35355;49.198;-0.368;2023-03-04T09:26:24;102316.03;;;6.60;66.65
49461;BME280;35355;49.198;-0.368;2023-03-04T09:28:58;102316.03;;;6.60;66.54
49461;BME280;35355;49.198;-0.368;2023-03-04T09:31:25;102316.88;;;6.60;66.55
49461;BME280;35355;49.198;-0.368;2023-03-04T09:33:52;102316.03;;;6.60;67.64
49461;BME280;35355;49.198;-0.368;2023-03-04T09:36:18;102322.13;;;6.62;67.61
49461;BME280;35355;49.198;-0.368;2023-03-04T09:38:43;102318.38;;;6.63;67.64
49461;BME280;35355;49.198;-0.368;2023-03-04T09:41:14;102317.72;;;6.61;67.60
49461;BME280;35355;49.198;-0.368;2023-03-04T09:43:42;102317.72;;;6.61;67.61
49461;BME280;35355;49.198;-0.368;2023-03-04T09:46:36;102318.53;;;6.61;67.64
49461;BME280;35355;49.198;-0.368;2023-03-04T09:48:59;102306.88;;;6.61;67.68
49461;BME280;35355;49.198;-0.368;2023-03-04T09:56:50;102321.84;;;6.57;68.46
49461;BME280;35355;49.198;-0.368;2023-03-04T09:59:25;102318.50;;;6.55;68.49
49461;BME280;35355;49.198;-0.368;2023-03-04T10:01:56;102316.44;;;6.57;68.60
49461;BME280;35355;49.198;-0.368;2023-03-04T10:04:39;102315.59;;;6.56;68.25
49461;BME280;35355;49.198;-0.368;2023-03-04T10:07:14;102314.38;;;6.59;68.96
49461;BME280;35355;49.198;-0.368;2023-03-04T10:12:12;102317.78;;;6.67;69.10
49461;BME280;35355;49.198;-0.368;2023-03-04T10:14:43;102316.94;;;6.67;69.64
49461;BME280;35355;49.198;-0.368;2023-03-04T10:17:23;102317.59;;;6.69;69.09
49461;BME280;35355;49.198;-0.368;2023-03-04T10:20:15;102316.34;;;6.72;68.83
49461;BME280;35355;49.198;-0.368;2023-03-04T10:22:44;102324.09;;;6.75;69.25
49461;BME280;35355;49.198;-0.368;2023-03-04T10:25:25;102329.13;;;6.78;69.31
49461;BME280;35355;49.198;-0.368;2023-03-04T10:28:00;102330.59;;;6.80;69.39
49461;BME280;35355;49.198;-0.368;2023-03-04T10:30:50;102329.38;;;6.83;69.11
49461;BME280;35355;49.198;-0.368;2023-03-04T10:33:22;102324.19;;;6.88;70.11
49461;BME280;35355;49.198;-0.368;2023-03-04T10:35:58;102322.53;;;6.94;69.58
49461;BME280;35355;49.198;-0.368;2023-03-04T10:38:24;102321.97;;;6.98;69.95
49461;BME280;35355;49.198;-0.368;2023-03-04T10:40:49;102320.91;;;6.99;70.19
49461;BME280;35355;49.198;-0.368;2023-03-04T10:43:19;102319.69;;;7.02;70.31
49461;BME280;35355;49.198;-0.368;2023-03-04T10:45:46;102314.69;;;7.06;69.81
49461;BME280;35355;49.198;-0.368;2023-03-04T10:48:27;102314.50;;;7.07;69.87
49461;BME280;35355;49.198;-0.368;2023-03-04T10:50:53;102317.47;;;7.12;69.83
49461;BME280;35355;49.198;-0.368;2023-03-04T10:53:27;102313.31;;;7.16;70.15
49461;BME280;35355;49.198;-0.368;2023-03-04T10:55:54;102313.09;;;7.18;70.50
49461;BME280;35355;49.198;-0.368;2023-03-04T10:58:20;102308.91;;;7.15;70.35
49461;BME280;35355;49.198;-0.368;2023-03-04T11:01:09;102299.28;;;7.13;70.31
49461;BME280;35355;49.198;-0.368;2023-03-04T11:03:46;102307.22;;;7.14;70.05
49461;BME280;35355;49.198;-0.368;2023-03-04T11:06:19;102299.28;;;7.13;70.71
49461;BME280;35355;49.198;-0.368;2023-03-04T11:08:56;102309.72;;;7.16;70.18
49461;BME280;35355;49.198;-0.368;2023-03-04T11:11:24;102310.53;;;7.10;70.11
49461;BME280;35355;49.198;-0.368;2023-03-04T11:13:55;102315.34;;;7.08;70.57
49461;BME280;35355;49.198;-0.368;2023-03-04T11:16:25;102313.25;;;7.10;70.49
49461;BME280;35355;49.198;-0.368;2023-03-04T11:18:54;102310.13;;;7.13;70.44
49461;BME280;35355;49.198;-0.368;2023-03-04T11:21:24;102298.84;;;7.09;70.05
49461;BME280;35355;49.198;-0.368;2023-03-04T11:23:59;102300.81;;;7.22;70.18
49461;BME280;35355;49.198;-0.368;2023-03-04T11:26:47;102291.00;;;7.28;70.42
49461;BME280;35355;49.198;-0.368;2023-03-04T11:31:48;102289.59;;;7.38;70.38
49461;BME280;35355;49.198;-0.368;2023-03-04T11:34:42;102291.31;;;7.46;70.04
49461;BME280;35355;49.198;-0.368;2023-03-04T11:39:52;102274.84;;;7.54;70.25
49461;BME280;35355;49.198;-0.368;2023-03-04T11:42:36;102271.91;;;7.63;70.13
49461;BME280;35355;49.198;-0.368;2023-03-04T11:45:03;102282.63;;;7.71;70.06
49461;BME280;35355;49.198;-0.368;2023-03-04T11:48:03;102278.22;;;7.70;69.58
49461;BME280;35355;49.198;-0.368;2023-03-04T11:50:44;102271.50;;;7.66;69.02
49461;BME280;35355;49.198;-0.368;2023-03-04T11:53:52;102273.81;;;7.69;69.09
49461;BME280;35355;49.198;-0.368;2023-03-04T11:56:33;102279.69;;;7.72;69.30
49461;BME280;35355;49.198;-0.368;2023-03-04T12:00:03;102273.81;;;7.69;69.10
49461;BME280;35355;49.198;-0.368;2023-03-04T12:02:17;102277.59;;;7.68;68.95
49461;BME280;35355;49.198;-0.368;2023-03-04T12:10:32;102269.84;;;7.65;69.29
49461;BME280;35355;49.198;-0.368;2023-03-04T12:24:40;102267.88;;;7.45;69.16
49461;BME280;35355;49.198;-0.368;2023-03-04T12:37:27;102245.53;;;7.50;69.81
49461;BME280;35355;49.198;-0.368;2023-03-04T12:40:11;102252.03;;;7.55;70.07
49461;BME280;35355;49.198;-0.368;2023-03-04T12:43:14;102237.00;;;7.60;69.94
49461;BME280;35355;49.198;-0.368;2023-03-04T12:48:34;102233.25;;;7.67;69.98
49461;BME280;35355;49.198;-0.368;2023-03-04T12:56:04;102216.09;;;7.60;70.28
49461;BME280;35355;49.198;-0.368;2023-03-04T12:58:32;102215.06;;;7.61;70.12
49461;BME280;35355;49.198;-0.368;2023-03-04T13:01:15;102207.94;;;7.60;70.26
49461;BME280;35355;49.198;-0.368;2023-03-04T13:06:30;102207.34;;;7.65;70.11
49461;BME280;35355;49.198;-0.368;2023-03-04T13:16:56;102197.69;;;7.55;69.38
49461;BME280;35355;49.198;-0.368;2023-03-04T13:19:56;102195.59;;;7.51;69.91
49461;BME280;35355;49.198;-0.368;2023-03-04T13:32:56;102178.66;;;7.55;70.50
49461;BME280;35355;49.198;-0.368;2023-03-04T13:43:44;102166.56;;;7.51;70.59
49461;BME280;35355;49.198;-0.368;2023-03-04T13:51:37;102159.03;;;7.53;70.10
49461;BME280;35355;49.198;-0.368;2023-03-04T13:54:11;102154.41;;;7.54;69.98
49461;BME280;35355;49.198;-0.368;2023-03-04T13:56:41;102160.72;;;7.54;69.47
49461;BME280;35355;49.198;-0.368;2023-03-04T14:01:35;102151.50;;;7.55;69.65
49461;BME280;35355;49.198;-0.368;2023-03-04T14:04:28;102152.75;;;7.60;69.51
49461;BME280;35355;49.198;-0.368;2023-03-04T14:06:57;102152.34;;;7.63;68.91
49461;BME280;35355;49.198;-0.368;2023-03-04T14:09:31;102146.09;;;7.62;69.15
49461;BME280;35355;49.198;-0.368;2023-03-04T14:12:04;102136.47;;;7.60;68.91
49461;BME280;35355;49.198;-0.368;2023-03-04T14:17:16;102139.19;;;7.60;69.34
49461;BME280;35355;49.198;-0.368;2023-03-04T14:19:44;102133.13;;;7.58;69.10
49461;BME280;35355;49.198;-0.368;2023-03-04T14:22:28;102124.13;;;7.57;69.24
49461;BME280;35355;49.198;-0.368;2023-03-04T14:25:39;102129.34;;;7.59;69.38
49461;BME280;35355;49.198;-0.368;2023-03-04T14:27:40;102124.56;;;7.61;69.03
49461;BME280;35355;49.198;-0.368;2023-03-04T14:30:21;102122.88;;;7.60;69.21
49461;BME280;35355;49.198;-0.368;2023-03-04T14:32:47;102120.16;;;7.60;69.28
49461;BME280;35355;49.198;-0.368;2023-03-04T14:35:21;102121.59;;;7.55;68.83